Terminal Aerodrome Forecast
Issued by NWS

Home | Current Version | Previous Version | Text Only | Print | Product List | Glossary On
Versions: 1 2 3 4 5 6 7 8 9 10 11 12 13 14 15 16
000
FTUS43 KPAH 172320
TAFOWB
TAF
KOWB 172320Z 1800/1824 22006KT P6SM SCT015 BKN035
     FM180600 VRB03KT 6SM BR SCT035
      TEMPO 1808/1812 3SM BR
     FM181300 VRB04KT P6SM SKC
     FM181600 29008KT P6SM SCT045=

USA.gov is the U.S. government's official web portal to all federal, state and local government web resources and services.